Time;durP1;ratioP1;P1;durP2;ratioP2;P2;SDS_P1;SDS_P2;PMS_P1;PMS_P2;Temp;Humidity;BMP_temperature;BMP_pressure;BME280_temperature;BME280_humidity;BME280_pressure;Samples;Min_cycle;Max_cycle;Signal;HPM_P1;HPM_P2
2022/05/26 00:00:37;;;;;;;0.98;0.63;;;15.70;65.60;;;;;;5032760;28;20067;-80
2022/05/26 00:03:03;;;;;;;1.63;0.90;;;15.70;66.10;;;;;;5020153;28;20393;-78
2022/05/26 00:05:29;;;;;;;0.60;0.60;;;15.60;66.30;;;;;;5027315;28;20032;-79
2022/05/26 00:07:55;;;;;;;0.50;0.50;;;15.60;66.60;;;;;;5027972;28;20040;-78
2022/05/26 00:10:22;;;;;;;1.48;0.52;;;15.50;66.40;;;;;;5032557;28;20045;-79
2022/05/26 00:12:49;;;;;;;1.88;0.73;;;15.50;66.40;;;;;;5029442;28;20072;-81
2022/05/26 00:15:15;;;;;;;0.47;0.47;;;15.50;66.70;;;;;;5024113;28;20032;-81
2022/05/26 00:17:41;;;;;;;1.05;0.70;;;15.50;66.40;;;;;;5035358;28;20718;-81
2022/05/26 00:20:09;;;;;;;0.77;0.70;;;15.50;66.50;;;;;;5027558;28;20037;-81
2022/05/26 00:22:35;;;;;;;2.78;0.60;;;15.50;66.50;;;;;;5029580;28;20022;-82
2022/05/26 00:25:03;;;;;;;2.00;0.77;;;15.50;66.60;;;;;;5034515;28;20464;-82
2022/05/26 00:27:28;;;;;;;0.73;0.73;;;15.50;66.50;;;;;;5029540;28;20038;-81
2022/05/26 00:29:54;;;;;;;0.60;0.50;;;15.60;66.60;;;;;;5027020;28;20039;-81
2022/05/26 00:32:21;;;;;;;1.38;0.65;;;15.60;66.00;;;;;;5027918;28;20547;-81
2022/05/26 00:34:46;;;;;;;0.80;0.80;;;15.70;66.00;;;;;;5032411;28;20724;-81
2022/05/26 00:37:12;;;;;;;0.75;0.70;;;15.70;66.10;;;;;;5027982;28;20040;-81
2022/05/26 00:39:39;;;;;;;1.48;0.93;;;15.70;65.50;;;;;;5039002;28;20029;-81
2022/05/26 00:42:06;;;;;;;0.90;0.70;;;15.80;66.20;;;;;;5032371;28;20025;-80
2022/05/26 00:44:33;;;;;;;0.88;0.75;;;15.80;66.80;;;;;;5026077;28;20087;-81
2022/05/26 00:47:04;;;;;;;1.05;0.70;;;15.80;64.60;;;;;;5036662;28;20032;-81
2022/05/26 00:49:44;;;;;;;2.15;0.90;;;15.80;65.30;;;;;;5026974;28;20033;-81
2022/05/26 00:52:22;;;;;;;1.05;0.63;;;15.80;64.90;;;;;;5033265;28;20883;-81
2022/05/26 00:54:50;;;;;;;0.60;0.60;;;15.90;65.30;;;;;;5031655;28;20043;-81
2022/05/26 00:57:17;;;;;;;1.45;0.60;;;15.90;66.40;;;;;;5031598;28;20044;-81
2022/05/26 01:08:27;;;;;;;0.60;0.60;;;15.90;64.30;;;;;;4943554;28;20076;-77
2022/05/26 01:11:41;;;;;;;1.45;0.75;;;15.80;65.00;;;;;;4939626;28;20038;-77
2022/05/26 01:14:10;;;;;;;0.82;0.50;;;15.80;65.60;;;;;;4942177;28;20506;-77
2022/05/26 01:17:04;;;;;;;1.27;0.73;;;15.80;65.30;;;;;;5018998;28;20547;-77
2022/05/26 01:20:03;;;;;;;0.90;0.60;;;15.80;65.20;;;;;;5026425;28;20036;-77
2022/05/26 01:23:28;;;;;;;0.73;0.50;;;15.80;65.00;;;;;;5027217;28;20053;-77
2022/05/26 01:26:14;;;;;;;2.67;0.57;;;15.80;64.80;;;;;;5015165;28;20029;-77
2022/05/26 01:29:15;;;;;;;1.08;1.02;;;15.80;64.90;;;;;;5010200;28;20605;-76
2022/05/26 01:32:07;;;;;;;1.77;1.00;;;15.80;64.30;;;;;;5016252;28;20505;-77
2022/05/26 01:35:03;;;;;;;1.38;0.60;;;15.80;64.10;;;;;;5034696;28;20063;-77
2022/05/26 01:37:56;;;;;;;1.55;0.80;;;15.80;64.30;;;;;;5033349;28;20741;-76
2022/05/26 01:40:45;;;;;;;1.65;0.80;;;15.90;64.10;;;;;;5029118;28;20048;-76
2022/05/26 01:43:45;;;;;;;2.15;0.98;;;15.90;63.10;;;;;;5030791;28;20397;-76
2022/05/26 01:46:17;;;;;;;1.73;0.70;;;16.00;62.80;;;;;;5027739;28;20236;-76
2022/05/26 01:48:51;;;;;;;1.90;0.70;;;16.00;62.50;;;;;;5027664;28;20104;-76
2022/05/26 01:51:37;;;;;;;1.00;0.85;;;16.10;61.40;;;;;;5024693;28;20036;-77
2022/05/26 01:54:16;;;;;;;2.13;0.73;;;16.20;62.70;;;;;;5019723;28;20040;-77
2022/05/26 01:56:42;;;;;;;2.47;0.75;;;16.20;61.90;;;;;;5026451;28;20552;-76
2022/05/26 01:59:28;;;;;;;0.40;0.40;;;16.20;61.40;;;;;;5028917;28;20040;-76
2022/05/26 02:02:01;;;;;;;3.38;0.88;;;16.20;62.10;;;;;;5027426;28;20037;-76
2022/05/26 02:04:33;;;;;;;1.55;0.90;;;16.20;62.50;;;;;;5021274;28;20033;-77
2022/05/26 02:07:32;;;;;;;2.40;0.82;;;16.30;62.30;;;;;;5028090;28;20030;-77
2022/05/26 02:10:02;;;;;;;1.42;0.60;;;16.20;61.80;;;;;;5030647;28;20033;-77
2022/05/26 02:12:37;;;;;;;1.67;0.65;;;16.30;61.80;;;;;;5028314;28;20025;-76
2022/05/26 02:15:39;;;;;;;0.70;0.60;;;16.30;62.30;;;;;;5028820;28;20025;-76
2022/05/26 02:18:15;;;;;;;1.20;0.80;;;16.30;62.20;;;;;;5026676;28;20033;-76
2022/05/26 02:20:47;;;;;;;2.42;0.70;;;16.40;63.10;;;;;;5030875;28;20029;-77
2022/05/26 02:23:20;;;;;;;0.60;0.60;;;16.40;63.30;;;;;;5026859;28;20033;-76
2022/05/26 02:25:46;;;;;;;1.67;0.55;;;16.40;61.90;;;;;;5027457;28;20602;-76
2022/05/26 02:28:12;;;;;;;0.65;0.65;;;16.40;62.10;;;;;;5024792;28;20121;-76
2022/05/26 02:30:41;;;;;;;2.45;0.60;;;16.50;62.20;;;;;;5035366;28;20120;-76
2022/05/26 02:33:14;;;;;;;2.92;1.00;;;16.50;62.40;;;;;;5029651;28;20106;-76
2022/05/26 02:35:43;;;;;;;1.95;0.60;;;16.60;61.80;;;;;;5028228;28;20558;-76
2022/05/26 02:38:13;;;;;;;2.28;0.73;;;16.60;62.10;;;;;;5030146;28;20079;-77
2022/05/26 02:40:40;;;;;;;2.67;0.70;;;16.60;62.50;;;;;;5023335;28;20373;-76
2022/05/26 02:43:20;;;;;;;1.75;0.60;;;16.60;63.50;;;;;;5030454;28;20034;-76
2022/05/26 02:46:04;;;;;;;2.72;0.63;;;16.60;63.40;;;;;;5022318;28;20403;-76
2022/05/26 02:48:44;;;;;;;0.80;0.50;;;16.60;63.80;;;;;;5030947;28;20029;-76
2022/05/26 02:51:32;;;;;;;0.80;0.60;;;16.60;63.50;;;;;;5025467;28;20782;-77
2022/05/26 02:54:31;;;;;;;1.65;0.63;;;16.60;62.50;;;;;;5024109;28;20030;-76
2022/05/26 02:57:14;;;;;;;3.40;0.80;;;16.70;61.60;;;;;;5017892;28;21021;-76
2022/05/26 02:59:54;;;;;;;2.45;0.57;;;16.70;62.20;;;;;;5025920;28;20236;-76
2022/05/26 03:02:58;;;;;;;1.42;0.60;;;16.60;62.30;;;;;;5016431;28;20040;-76
2022/05/26 03:05:29;;;;;;;2.55;0.68;;;16.60;62.40;;;;;;5020633;28;20059;-76
2022/05/26 03:07:59;;;;;;;2.72;0.80;;;16.60;62.40;;;;;;5028350;28;20020;-76
2022/05/26 03:10:27;;;;;;;2.65;0.75;;;16.60;62.60;;;;;;5026947;28;20057;-76
2022/05/26 03:12:59;;;;;;;1.10;0.65;;;16.60;62.70;;;;;;5023526;28;20026;-76
2022/05/26 03:15:26;;;;;;;1.33;0.90;;;16.60;62.40;;;;;;5019989;28;20045;-76
2022/05/26 03:17:52;;;;;;;2.42;1.10;;;16.60;62.90;;;;;;5029096;28;20052;-76
2022/05/26 03:20:18;;;;;;;2.25;0.90;;;16.60;63.00;;;;;;5023826;28;20476;-76
2022/05/26 03:22:44;;;;;;;2.50;0.70;;;16.60;63.40;;;;;;5024521;28;20562;-76
2022/05/26 03:25:10;;;;;;;2.13;0.80;;;16.60;62.40;;;;;;5027854;28;20037;-76
2022/05/26 03:27:36;;;;;;;1.35;0.60;;;16.70;63.90;;;;;;5031106;28;20067;-76
2022/05/26 03:30:02;;;;;;;3.75;0.90;;;16.70;63.50;;;;;;5030185;28;20080;-77
2022/05/26 03:32:28;;;;;;;2.38;0.98;;;16.70;63.50;;;;;;5025852;28;20029;-77
2022/05/26 03:43:08;;;;;;;0.80;0.70;;;16.70;64.10;;;;;;5027758;28;20549;-76
2022/05/26 03:45:35;;;;;;;3.15;0.70;;;16.70;65.00;;;;;;5029182;28;20067;-76
2022/05/26 03:48:02;;;;;;;2.00;1.10;;;16.70;64.90;;;;;;5023949;28;20110;-76
2022/05/26 03:50:28;;;;;;;1.17;0.77;;;16.80;63.80;;;;;;5030401;28;20030;-76
2022/05/26 03:52:54;;;;;;;1.75;1.00;;;16.80;64.10;;;;;;5030103;28;20365;-76
2022/05/26 03:55:22;;;;;;;4.57;1.20;;;16.80;64.30;;;;;;5029627;28;20052;-76
2022/05/26 03:57:48;;;;;;;3.33;1.00;;;16.90;64.30;;;;;;5025369;28;20025;-76
2022/05/26 04:00:17;;;;;;;1.25;1.02;;;16.90;64.70;;;;;;5027235;28;20026;-76
2022/05/26 04:02:43;;;;;;;2.63;0.88;;;16.90;64.80;;;;;;5027362;28;20060;-76
2022/05/26 04:05:12;;;;;;;5.65;1.10;;;16.90;64.20;;;;;;5026424;28;20460;-77
2022/05/26 04:07:38;;;;;;;3.03;0.80;;;16.90;64.50;;;;;;5028631;28;20046;-76
2022/05/26 04:10:09;;;;;;;0.85;0.77;;;17.00;64.30;;;;;;5035713;28;20025;-77
2022/05/26 04:12:36;;;;;;;1.60;0.90;;;17.00;63.90;;;;;;5022803;28;20461;-75
2022/05/26 04:15:03;;;;;;;5.30;0.77;;;17.00;63.60;;;;;;5026332;28;20139;-76
2022/05/26 04:17:29;;;;;;;2.15;0.93;;;17.10;63.70;;;;;;5027244;28;20037;-75
2022/05/26 04:19:55;;;;;;;2.55;0.90;;;17.10;63.20;;;;;;5032526;28;20025;-76
2022/05/26 04:22:23;;;;;;;2.75;1.00;;;17.20;63.60;;;;;;5025731;28;20033;-76
2022/05/26 04:24:55;;;;;;;2.63;1.40;;;17.30;63.80;;;;;;5026534;28;20029;-76
2022/05/26 04:27:24;;;;;;;4.97;0.90;;;17.30;63.70;;;;;;5032563;28;20883;-76
2022/05/26 04:29:50;;;;;;;2.92;0.80;;;17.40;63.80;;;;;;5026381;28;20626;-75
2022/05/26 04:32:16;;;;;;;1.85;0.82;;;17.50;63.50;;;;;;5028019;28;20036;-76
2022/05/26 04:34:45;;;;;;;1.95;1.20;;;17.50;63.40;;;;;;5023069;28;20033;-77
2022/05/26 04:37:11;;;;;;;1.60;1.10;;;17.60;63.00;;;;;;5028867;28;20500;-77
2022/05/26 04:39:37;;;;;;;0.98;0.90;;;17.60;62.80;;;;;;5021514;28;20017;-74
2022/05/26 04:42:04;;;;;;;3.13;0.88;;;17.70;63.30;;;;;;5030327;28;20087;-73
2022/05/26 04:44:33;;;;;;;3.38;1.10;;;17.70;62.70;;;;;;5028867;28;20141;-76
2022/05/26 04:47:00;;;;;;;1.75;0.90;;;17.70;62.60;;;;;;5025371;28;20040;-68
2022/05/26 04:49:30;;;;;;;3.60;1.25;;;17.80;63.00;;;;;;5021676;28;20038;-75
2022/05/26 04:51:57;;;;;;;1.92;0.88;;;17.80;63.30;;;;;;5028795;28;20053;-76
2022/05/26 04:54:23;;;;;;;1.52;1.08;;;17.90;63.50;;;;;;5028664;28;20140;-72
2022/05/26 04:56:49;;;;;;;7.40;0.95;;;18.00;63.40;;;;;;5029803;28;20025;-70
2022/05/26 04:59:41;;;;;;;2.10;1.00;;;18.10;62.80;;;;;;5032848;28;20033;-75
2022/05/26 05:02:11;;;;;;;1.98;1.08;;;18.30;62.90;;;;;;5027580;28;20081;-75
2022/05/26 05:04:39;;;;;;;1.80;1.10;;;18.30;62.60;;;;;;5019364;28;20041;-75
2022/05/26 05:07:05;;;;;;;1.98;1.13;;;18.40;62.20;;;;;;5030050;28;20381;-75
2022/05/26 05:09:31;;;;;;;1.48;0.98;;;18.40;62.00;;;;;;5030026;28;20041;-75
2022/05/26 05:11:57;;;;;;;3.70;1.20;;;18.40;62.10;;;;;;5032169;28;20029;-75
2022/05/26 05:14:22;;;;;;;6.10;1.40;;;18.30;62.30;;;;;;5025611;28;20714;-75
2022/05/26 05:16:48;;;;;;;1.58;0.93;;;18.30;63.10;;;;;;5026535;28;20029;-75
2022/05/26 05:19:17;;;;;;;4.57;2.20;;;18.50;62.60;;;;;;5024685;28;20437;-75
2022/05/26 05:22:00;;;;;;;4.00;1.70;;;18.70;62.00;;;;;;5027842;28;20030;-75
2022/05/26 05:24:39;;;;;;;2.70;1.30;;;18.80;61.20;;;;;;5024989;28;20401;-75
2022/05/26 05:27:16;;;;;;;2.83;1.30;;;19.00;61.50;;;;;;5030315;28;20025;-73
2022/05/26 05:29:44;;;;;;;1.77;1.20;;;19.20;60.80;;;;;;5025757;28;20041;-73
2022/05/26 05:32:23;;;;;;;3.28;1.45;;;19.20;60.70;;;;;;5030378;28;20108;-72
2022/05/26 05:35:03;;;;;;;2.80;1.33;;;19.10;61.00;;;;;;5025959;28;20036;-73
2022/05/26 05:37:31;;;;;;;3.03;1.30;;;19.10;60.70;;;;;;5022522;28;20036;-74
2022/05/26 05:39:58;;;;;;;7.20;1.30;;;19.00;61.10;;;;;;5024105;28;20025;-74
2022/05/26 05:42:34;;;;;;;3.05;1.42;;;19.10;61.50;;;;;;5027115;28;20091;-75
2022/05/26 05:45:37;;;;;;;1.65;1.00;;;19.10;60.80;;;;;;5027060;28;20037;-74
2022/05/26 05:48:03;;;;;;;2.83;1.55;;;19.20;61.10;;;;;;5019715;28;20053;-74
2022/05/26 05:50:29;;;;;;;3.47;1.10;;;19.40;60.80;;;;;;5021484;28;20505;-74
2022/05/26 05:52:55;;;;;;;5.03;1.52;;;19.50;60.50;;;;;;5028956;28;20121;-74
2022/05/26 05:55:22;;;;;;;3.15;1.48;;;19.60;59.70;;;;;;5030090;28;20029;-75
2022/05/26 05:57:48;;;;;;;3.42;1.65;;;19.60;60.00;;;;;;5030229;28;20025;-75
2022/05/26 06:00:14;;;;;;;2.08;1.20;;;19.70;59.70;;;;;;5030261;28;20024;-74
2022/05/26 06:02:40;;;;;;;1.92;1.33;;;19.70;58.90;;;;;;5028709;28;20572;-74
2022/05/26 06:05:06;;;;;;;1.75;1.13;;;19.90;59.20;;;;;;5023798;28;20060;-75
2022/05/26 06:07:33;;;;;;;2.72;1.45;;;20.00;58.60;;;;;;5023903;28;20121;-73
2022/05/26 06:09:59;;;;;;;5.05;1.50;;;20.10;58.20;;;;;;5024183;28;20021;-74
2022/05/26 06:12:25;;;;;;;2.72;1.00;;;20.10;58.00;;;;;;5028828;28;20119;-74
2022/05/26 06:14:50;;;;;;;2.17;1.10;;;20.20;58.40;;;;;;5025379;28;20041;-74
2022/05/26 06:17:16;;;;;;;1.95;1.50;;;20.40;58.10;;;;;;5025556;28;20041;-75
2022/05/26 06:19:44;;;;;;;1.38;1.10;;;20.50;57.30;;;;;;5019032;28;20032;-75
2022/05/26 06:22:19;;;;;;;4.35;1.20;;;20.50;57.10;;;;;;5020972;28;20047;-75
2022/05/26 06:24:46;;;;;;;3.35;1.55;;;20.60;57.30;;;;;;5029319;28;20179;-75
2022/05/26 06:29:59;;;;;;;2.78;1.50;;;20.90;57.00;;;;;;5024819;28;20033;-74
2022/05/26 06:37:57;;;;;;;5.03;1.30;;;20.80;57.00;;;;;;5022896;28;20018;-76
2022/05/26 06:40:28;;;;;;;3.65;1.40;;;20.70;57.30;;;;;;5022451;28;20871;-74
2022/05/26 06:42:55;;;;;;;1.95;1.48;;;20.70;57.30;;;;;;5039322;28;20028;-74
2022/05/26 06:45:22;;;;;;;3.55;1.38;;;20.80;57.60;;;;;;5026356;28;20045;-75
2022/05/26 06:47:48;;;;;;;3.60;1.20;;;20.70;58.00;;;;;;5019396;28;20033;-77
2022/05/26 06:50:15;;;;;;;2.85;1.42;;;20.60;58.40;;;;;;5025494;28;20042;-70
2022/05/26 06:52:41;;;;;;;3.80;1.60;;;20.50;58.80;;;;;;5030124;28;20033;-68
2022/05/26 06:55:14;;;;;;;2.60;1.60;;;20.30;59.70;;;;;;5024031;28;20037;-74
2022/05/26 06:57:40;;;;;;;3.17;1.60;;;20.30;59.30;;;;;;5027119;28;20029;-71
2022/05/26 07:00:08;;;;;;;6.60;1.85;;;20.30;59.60;;;;;;5024928;28;20636;-74
2022/05/26 07:02:35;;;;;;;2.60;1.90;;;20.10;60.80;;;;;;5034968;28;20115;-75
2022/05/26 07:05:01;;;;;;;3.30;2.00;;;19.90;62.30;;;;;;5016630;28;20080;-75
2022/05/26 07:07:27;;;;;;;3.67;2.17;;;19.50;65.70;;;;;;5021674;28;20581;-75
2022/05/26 07:09:56;;;;;;;4.13;2.38;;;19.10;68.50;;;;;;5027711;28;20099;-75
2022/05/26 07:12:23;;;;;;;3.83;3.15;;;18.70;70.40;;;;;;5024367;28;20108;-75
2022/05/26 07:14:49;;;;;;;6.55;3.53;;;18.30;72.90;;;;;;5029754;28;20033;-75
2022/05/26 07:17:15;;;;;;;3.00;2.70;;;18.00;74.70;;;;;;5025297;28;20041;-75
2022/05/26 07:19:42;;;;;;;4.18;2.83;;;17.90;77.20;;;;;;5032865;28;20583;-75
2022/05/26 07:22:08;;;;;;;4.43;2.95;;;17.80;78.20;;;;;;5033376;28;20132;-74
2022/05/26 07:24:34;;;;;;;5.75;2.70;;;17.80;78.80;;;;;;5031658;28;20041;-76
2022/05/26 07:27:00;;;;;;;3.03;2.72;;;17.80;79.20;;;;;;5028629;28;20029;-76
2022/05/26 07:29:27;;;;;;;4.28;3.20;;;17.80;79.60;;;;;;5027147;28;20882;-76
2022/05/26 07:31:53;;;;;;;6.30;3.42;;;17.80;80.10;;;;;;5030180;28;20017;-75
2022/05/26 07:34:20;;;;;;;6.10;3.22;;;17.70;80.30;;;;;;5033607;28;20040;-74
2022/05/26 07:42:19;;;;;;;4.97;3.58;;;17.50;82.30;;;;;;5029702;28;20037;-75
2022/05/26 07:44:48;;;;;;;4.15;3.47;;;17.40;83.20;;;;;;5030728;28;20037;-74
2022/05/26 07:47:15;;;;;;;4.97;4.20;;;17.40;83.90;;;;;;5028943;28;20048;-75
2022/05/26 07:49:45;;;;;;;5.85;4.60;;;17.50;84.30;;;;;;5023439;28;20750;-74
2022/05/26 07:52:12;;;;;;;3.72;3.40;;;17.50;84.60;;;;;;5034028;28;20084;-74
2022/05/26 07:54:38;;;;;;;4.22;3.83;;;17.60;83.80;;;;;;5031191;28;20033;-75
2022/05/26 07:57:06;;;;;;;4.18;3.25;;;17.70;83.60;;;;;;5025160;28;20040;-75
2022/05/26 07:59:32;;;;;;;3.92;3.53;;;17.80;83.60;;;;;;5025284;28;20061;-74
2022/05/26 08:01:58;;;;;;;3.10;2.80;;;18.00;83.20;;;;;;5033310;28;20028;-75
2022/05/26 08:04:24;;;;;;;4.18;2.22;;;18.40;82.00;;;;;;5033681;28;20025;-75
2022/05/26 08:06:50;;;;;;;3.05;1.70;;;19.00;80.20;;;;;;5029418;28;20749;-75
2022/05/26 08:09:18;;;;;;;2.17;1.50;;;19.60;76.60;;;;;;5028822;28;20033;-76
2022/05/26 08:11:44;;;;;;;2.88;1.70;;;20.10;75.20;;;;;;5029134;28;20569;-76
2022/05/26 08:14:11;;;;;;;1.70;1.60;;;20.50;73.20;;;;;;5021855;28;20025;-76
2022/05/26 08:16:38;;;;;;;1.98;1.88;;;20.70;71.90;;;;;;5029131;28;20069;-76
2022/05/26 08:19:04;;;;;;;3.92;2.83;;;20.80;71.90;;;;;;5029071;28;20036;-76
2022/05/26 08:21:31;;;;;;;3.63;2.58;;;20.80;72.10;;;;;;5026264;28;20031;-74
2022/05/26 08:23:58;;;;;;;3.70;2.97;;;20.50;72.70;;;;;;5027301;28;20029;-76
2022/05/26 08:26:23;;;;;;;3.88;2.80;;;20.30;73.20;;;;;;5028520;28;20108;-76
2022/05/26 08:28:49;;;;;;;8.20;4.00;;;20.20;74.30;;;;;;5021144;28;20499;-76
2022/05/26 08:31:16;;;;;;;9.35;3.28;;;20.20;73.60;;;;;;5029324;28;20036;-75
2022/05/26 08:33:42;;;;;;;4.00;2.70;;;20.30;73.80;;;;;;5030145;28;20116;-76
2022/05/26 08:36:10;;;;;;;5.25;2.58;;;20.60;73.70;;;;;;5027238;28;20087;-75
2022/05/26 08:38:37;;;;;;;2.88;2.55;;;21.10;71.00;;;;;;5025012;28;20795;-76
2022/05/26 08:41:04;;;;;;;1.90;1.75;;;21.40;69.80;;;;;;5024631;28;20025;-76
2022/05/26 08:43:42;;;;;;;2.97;1.45;;;21.70;66.20;;;;;;5026167;28;20112;-76
2022/05/26 08:46:12;;;;;;;2.15;1.08;;;22.30;66.00;;;;;;5030287;28;20037;-76
2022/05/26 08:48:55;;;;;;;0.90;0.90;;;22.50;62.30;;;;;;5028232;28;20033;-76
2022/05/26 08:51:47;;;;;;;1.55;1.00;;;22.60;58.40;;;;;;5025471;28;20076;-76
2022/05/26 08:54:42;;;;;;;1.33;0.95;;;22.80;60.10;;;;;;5029514;28;20121;-76
2022/05/26 08:57:15;;;;;;;1.45;1.10;;;22.90;59.00;;;;;;5021414;28;20033;-76
2022/05/26 08:59:44;;;;;;;1.17;0.70;;;23.10;58.90;;;;;;5031318;28;20025;-76
2022/05/26 09:02:42;;;;;;;3.85;1.20;;;23.20;58.40;;;;;;5025657;28;20025;-76
2022/05/26 09:05:19;;;;;;;3.40;1.00;;;23.30;57.50;;;;;;5023212;28;20033;-76
2022/05/26 09:13:39;;;;;;;3.97;0.90;;;23.60;53.90;;;;;;5020365;28;20056;-75
2022/05/26 09:16:06;;;;;;;5.10;0.70;;;23.60;52.70;;;;;;5022945;28;20026;-76
2022/05/26 09:18:33;;;;;;;1.55;0.70;;;23.60;52.90;;;;;;5026128;28;20037;-70
2022/05/26 09:21:11;;;;;;;1.55;0.68;;;23.40;53.50;;;;;;5028910;28;20041;-76
2022/05/26 09:23:39;;;;;;;1.50;0.77;;;23.20;54.00;;;;;;5025509;28;20056;-77
2022/05/26 09:26:09;;;;;;;4.28;0.73;;;23.10;54.30;;;;;;5026792;28;20567;-75
2022/05/26 09:28:38;;;;;;;2.35;0.80;;;23.10;54.10;;;;;;5032030;28;20714;-76
2022/05/26 09:31:32;;;;;;;1.33;0.70;;;23.10;53.90;;;;;;5024693;28;20047;-78
2022/05/26 09:34:08;;;;;;;1.58;1.00;;;23.20;53.90;;;;;;5027896;28;20395;-76
2022/05/26 09:36:43;;;;;;;5.05;0.80;;;23.20;53.30;;;;;;5027055;28;20374;-75
2022/05/26 09:39:10;;;;;;;2.67;1.13;;;23.20;54.30;;;;;;5026067;28;20041;-76
2022/05/26 09:41:43;;;;;;;3.38;1.20;;;23.20;54.00;;;;;;5028873;28;20048;-75
2022/05/26 09:44:49;;;;;;;1.75;0.82;;;23.20;53.70;;;;;;5027143;28;20033;-76
2022/05/26 09:47:39;;;;;;;1.90;0.93;;;23.70;52.70;;;;;;5022136;28;20033;-76
2022/05/26 09:50:08;;;;;;;3.00;0.80;;;24.00;50.90;;;;;;5023354;28;20024;-76
2022/05/26 09:52:47;;;;;;;1.95;0.80;;;24.00;51.40;;;;;;5022656;28;20057;-77
2022/05/26 09:55:28;;;;;;;1.60;0.90;;;24.10;51.70;;;;;;5022807;28;20041;-76
2022/05/26 09:58:27;;;;;;;2.17;1.02;;;23.70;51.30;;;;;;5027667;28;20069;-76
2022/05/26 10:00:57;;;;;;;2.88;0.90;;;23.10;53.00;;;;;;5018602;28;20037;-75
2022/05/26 10:04:00;;;;;;;3.60;1.10;;;22.50;53.70;;;;;;5020058;28;20029;-77
2022/05/26 10:06:32;;;;;;;3.20;1.00;;;21.90;54.70;;;;;;5025487;28;20069;-76
2022/05/26 10:09:30;;;;;;;3.60;0.90;;;21.50;55.60;;;;;;5025405;28;20041;-76
2022/05/26 10:12:18;;;;;;;1.67;0.90;;;21.40;56.10;;;;;;5028963;28;20076;-73
2022/05/26 10:14:51;;;;;;;2.65;1.25;;;22.00;56.10;;;;;;5029357;28;20040;-73
2022/05/26 10:17:42;;;;;;;2.05;1.02;;;22.40;54.80;;;;;;5027299;28;20060;-77
2022/05/26 10:20:23;;;;;;;3.50;1.00;;;22.90;54.30;;;;;;5030037;28;20086;-77
2022/05/26 10:22:54;;;;;;;2.88;1.02;;;23.30;54.10;;;;;;5022173;28;20032;-77
2022/05/26 10:25:37;;;;;;;4.78;1.30;;;23.90;51.20;;;;;;5026584;28;20116;-77
2022/05/26 10:28:08;;;;;;;3.45;1.10;;;24.20;51.10;;;;;;5024577;28;20029;-77
2022/05/26 10:30:50;;;;;;;6.13;1.25;;;24.20;50.80;;;;;;5023728;28;20034;-77
2022/05/26 10:33:21;;;;;;;2.28;1.10;;;23.90;49.60;;;;;;5026896;28;20394;-77
2022/05/26 10:36:09;;;;;;;4.03;1.20;;;23.40;51.40;;;;;;5025241;28;20120;-77
2022/05/26 10:38:57;;;;;;;1.55;1.10;;;23.00;52.60;;;;;;5024308;28;20064;-77
2022/05/26 10:41:34;;;;;;;2.20;0.90;;;22.80;52.30;;;;;;5022865;28;20036;-78
2022/05/26 10:44:04;;;;;;;5.13;1.23;;;22.70;53.40;;;;;;5028600;28;20067;-78
2022/05/26 10:46:34;;;;;;;4.05;1.20;;;22.80;53.30;;;;;;5025648;28;20490;-76
2022/05/26 10:49:25;;;;;;;4.90;1.33;;;23.00;53.20;;;;;;5022966;28;20111;-76
2022/05/26 10:52:21;;;;;;;3.25;1.38;;;23.00;52.90;;;;;;5024863;28;20062;-74
2022/05/26 10:54:54;;;;;;;3.17;1.60;;;23.00;53.20;;;;;;5026911;28;20098;-71
2022/05/26 10:57:26;;;;;;;3.65;1.63;;;22.70;53.40;;;;;;5025069;28;20041;-72
2022/05/26 11:00:08;;;;;;;4.15;1.60;;;22.20;53.50;;;;;;5026327;28;20025;-70
2022/05/26 11:03:19;;;;;;;4.43;1.73;;;21.60;55.80;;;;;;5035194;28;20082;-72
2022/05/26 11:05:50;;;;;;;5.07;1.40;;;21.00;57.90;;;;;;5022271;28;20041;-72
2022/05/26 11:08:26;;;;;;;3.22;1.38;;;20.90;58.50;;;;;;5027518;28;20037;-71
2022/05/26 11:11:06;;;;;;;7.40;1.50;;;21.00;58.30;;;;;;5024216;28;20434;-71
2022/05/26 11:13:52;;;;;;;4.18;1.45;;;21.30;58.40;;;;;;5025148;28;20042;-72
2022/05/26 11:19:39;;;;;;;4.65;1.90;;;21.80;56.60;;;;;;5026110;28;20576;-72
2022/05/26 11:22:09;;;;;;;4.45;1.75;;;22.00;57.10;;;;;;5025129;28;20029;-72
2022/05/26 11:24:34;;;;;;;3.17;1.30;;;22.50;56.30;;;;;;5028337;28;20473;-72
2022/05/26 11:27:06;;;;;;;3.72;1.77;;;22.60;53.20;;;;;;5023735;28;20074;-72
2022/05/26 11:29:50;;;;;;;5.68;1.30;;;22.50;54.10;;;;;;5020637;28;20102;-72
2022/05/26 11:38:26;;;;;;;4.80;2.10;;;23.70;53.70;;;;;;5027967;28;20450;-71
2022/05/26 11:41:07;;;;;;;2.35;1.67;;;24.00;51.10;;;;;;5022137;28;20022;-71
2022/05/26 11:43:42;;;;;;;3.95;1.25;;;24.10;50.70;;;;;;5025135;28;20024;-71
2022/05/26 11:46:09;;;;;;;9.05;1.95;;;24.00;49.50;;;;;;5016603;28;20037;-71
2022/05/26 11:48:42;;;;;;;11.32;5.13;;;23.80;50.10;;;;;;5019399;28;20114;-71
2022/05/26 11:51:30;;;;;;;7.22;3.38;;;23.70;50.10;;;;;;5028425;28;20041;-71
2022/05/26 11:53:56;;;;;;;19.80;7.68;;;23.40;50.30;;;;;;5029622;28;20621;-71
2022/05/26 11:56:28;;;;;;;8.40;3.95;;;23.00;51.50;;;;;;5023243;28;20038;-70
2022/05/26 11:59:26;;;;;;;4.82;1.70;;;22.80;51.90;;;;;;5026361;28;20048;-72
2022/05/26 12:01:58;;;;;;;8.38;3.22;;;22.90;51.90;;;;;;5029727;28;20094;-70
2022/05/26 12:04:30;;;;;;;4.45;1.45;;;23.20;50.80;;;;;;5019066;28;20754;-70
2022/05/26 12:07:00;;;;;;;3.95;1.40;;;23.30;50.10;;;;;;5037841;28;20034;-72
2022/05/26 12:09:48;;;;;;;6.13;1.52;;;23.30;50.40;;;;;;5023410;28;20026;-71
2022/05/26 12:12:16;;;;;;;2.72;1.25;;;23.00;50.50;;;;;;5026138;28;20091;-70
2022/05/26 12:14:52;;;;;;;2.88;1.38;;;22.60;51.40;;;;;;5027095;28;20032;-70
2022/05/26 12:17:30;;;;;;;;;;;22.50;51.90;;;;;;5027604;28;20045;-72
2022/05/26 12:19:59;;;;;;;2.80;1.27;;;22.40;52.50;;;;;;5027710;28;19940;-70
2022/05/26 12:22:37;;;;;;;1.65;1.48;;;22.40;52.80;;;;;;5025454;28;20112;-71
2022/05/26 12:25:21;;;;;;;3.53;1.40;;;22.30;52.60;;;;;;5022902;28;20669;-71
2022/05/26 12:27:53;;;;;;;2.40;1.20;;;22.10;52.60;;;;;;5030221;28;20060;-70
2022/05/26 12:30:39;;;;;;;2.50;1.10;;;21.80;53.70;;;;;;5026795;28;20080;-70
2022/05/26 12:33:16;;;;;;;2.47;1.38;;;21.90;54.30;;;;;;5027406;28;20037;-70
2022/05/26 12:36:07;;;;;;;2.50;1.33;;;21.90;54.30;;;;;;5032753;28;20120;-71
2022/05/26 12:38:44;;;;;;;5.45;1.42;;;21.70;54.30;;;;;;5020475;28;20056;-69
2022/05/26 12:41:41;;;;;;;5.22;1.67;;;21.50;55.50;;;;;;5031288;28;20041;-69
2022/05/26 12:44:31;;;;;;;2.28;1.25;;;21.60;55.70;;;;;;5030627;28;20036;-70
2022/05/26 12:47:15;;;;;;;3.45;1.30;;;22.10;54.20;;;;;;5033835;28;20200;-73
2022/05/26 12:49:56;;;;;;;3.67;1.25;;;22.50;53.30;;;;;;5029907;28;20029;-74
2022/05/26 12:52:41;;;;;;;5.38;1.50;;;22.70;53.00;;;;;;5029454;28;20815;-74
2022/05/26 12:55:31;;;;;;;2.67;1.23;;;22.50;52.90;;;;;;5027434;28;20041;-72
2022/05/26 12:58:02;;;;;;;2.45;1.40;;;22.40;53.70;;;;;;5025928;28;20103;-72
2022/05/26 13:00:38;;;;;;;3.03;1.15;;;22.20;53.60;;;;;;5027862;28;20025;-73
2022/05/26 13:03:08;;;;;;;;;;;22.10;53.80;;;;;;5032280;28;20048;-73
2022/05/26 13:05:38;;;;;;;2.42;1.15;;;22.00;54.00;;;;;;5027022;28;19909;-72
2022/05/26 13:08:05;;;;;;;3.78;1.13;;;21.80;53.90;;;;;;5029842;28;20032;-74
2022/05/26 13:10:38;;;;;;;6.10;1.92;;;21.70;53.40;;;;;;5031641;28;20369;-73
2022/05/26 13:13:29;;;;;;;4.60;2.35;;;21.60;53.40;;;;;;5026537;28;20128;-74
2022/05/26 13:16:33;;;;;;;3.58;1.35;;;21.50;53.80;;;;;;5039675;28;20043;-73
2022/05/26 13:19:13;;;;;;;1.25;1.15;;;21.70;53.70;;;;;;5024352;28;20029;-73
2022/05/26 13:21:41;;;;;;;4.38;1.15;;;21.90;51.30;;;;;;5025414;28;20027;-73
2022/05/26 13:24:23;;;;;;;2.75;1.10;;;21.70;52.00;;;;;;5024972;28;20107;-74
2022/05/26 13:26:55;;;;;;;9.13;3.88;;;21.70;52.60;;;;;;5023689;28;20043;-74
2022/05/26 13:29:22;;;;;;;4.78;2.60;;;21.60;50.50;;;;;;5027816;28;20037;-73
2022/05/26 13:34:43;;;;;;;4.93;1.50;;;22.20;50.10;;;;;;5027067;28;20030;-74
2022/05/26 13:37:18;;;;;;;3.28;1.20;;;22.40;49.70;;;;;;5027281;28;20802;-74
2022/05/26 13:39:44;;;;;;;5.83;1.20;;;22.40;47.90;;;;;;5022021;28;20041;-74
2022/05/26 13:42:10;;;;;;;4.68;1.42;;;22.30;47.90;;;;;;5025082;28;20271;-74
2022/05/26 13:44:42;;;;;;;3.35;1.17;;;22.30;48.20;;;;;;5027814;28;20136;-74
2022/05/26 13:47:12;;;;;;;4.53;1.30;;;22.20;48.70;;;;;;5028311;28;20044;-74
2022/05/26 13:49:41;;;;;;;7.20;1.60;;;22.00;48.70;;;;;;5030458;28;20024;-72
2022/05/26 13:52:24;;;;;;;3.95;1.20;;;21.90;48.50;;;;;;5029381;28;20076;-74
2022/05/26 13:54:56;;;;;;;4.70;1.00;;;21.90;48.80;;;;;;5020295;28;20122;-74
2022/05/26 13:57:39;;;;;;;4.72;1.40;;;22.00;48.90;;;;;;5021263;28;20092;-74
2022/05/26 14:00:24;;;;;;;4.28;0.95;;;22.30;49.10;;;;;;5023095;28;20099;-74
2022/05/26 14:02:52;;;;;;;3.72;1.00;;;22.60;47.50;;;;;;5027239;28;20022;-74
2022/05/26 14:05:22;;;;;;;3.70;1.30;;;22.60;48.00;;;;;;5026916;28;20048;-74
2022/05/26 14:07:59;;;;;;;4.03;1.35;;;22.60;47.70;;;;;;5033871;28;20437;-75
2022/05/26 14:10:40;;;;;;;1.52;0.93;;;22.60;47.50;;;;;;5031511;28;20807;-74